Latest Weather Observations for Murganella Airstrip

IDD60801

Issued at 8:41 pm CST Sunday 16 December 2018 (issued every 10 minutes, with the page automatically refreshed every 10 minutes)

About weather observations | Map of weather stations | Latest weather observations for NT | Other Formats
Station Details ID: 014309 Name: MURGANELLA AIRSTRIP Lat: -11.55 Lon: 132.93 Height: 9.5 m
Data from the previous 72 hours. | See also: Recent months at Murganella Airstrip
Date/Time
CST
Temp
°C
App
Temp
°C
Dew
Point
°C
Rel
Hum
%
Delta-T
°C
Wind Press
QNH
hPa
Press
MSL
hPa
Rain since
9am
mm
Dir  Spd
km/h
Gust
km/h
Spd
kts
Gust
kts
16/08:30pm 29.2 35.0 25.2 79 2.8 NW 4 7 2 4 1006.2 1006.1 0.0
16/08:00pm 29.8 36.1 25.3 77 3.2 NW 2 6 1 3 1006.1 1006.0 0.0
16/07:30pm 30.3 36.1 25.1 73 3.7 WNW 4 6 2 3 1005.7 1005.6 0.0
16/07:00pm 30.8 35.9 24.7 70 4.3 NW 6 11 3 6 1005.2 1005.1 0.0
16/06:30pm 32.0 35.6 22.1 55 6.8 WNW 6 9 3 5 1005.1 1005.0 0.0
16/06:00pm 32.7 35.8 22.2 54 7.2 W 9 17 5 9 1004.8 1004.7 0.0
16/05:30pm 33.4 36.3 23.1 54 7.1 WSW 13 17 7 9 1005.0 1004.9 0.0
16/05:00pm 34.0 37.8 22.7 51 7.8 W 7 17 4 9 1004.6 1004.5 0.0
16/04:30pm 33.6 36.5 21.7 49 8.1 W 9 20 5 11 1004.5 1004.4 0.0
16/04:00pm 33.6 36.5 21.7 49 8.1 W 9 20 5 11 1004.6 1004.5 0.0
16/03:30pm 33.3 35.6 22.1 52 7.7 WNW 13 20 7 11 1004.8 1004.7 0.0
16/03:00pm 33.7 36.4 22.8 53 7.5 W 13 22 7 12 1005.0 1004.9 0.0
16/02:30pm 34.5 37.6 23.5 52 7.7 W 13 24 7 13 1005.5 1005.4 0.0
16/02:00pm 34.2 36.9 24.2 56 7.0 W 17 26 9 14 1005.7 1005.6 0.0
16/01:30pm 34.8 37.5 23.5 52 7.9 WSW 15 24 8 13 1005.9 1005.8 0.0
16/01:00pm 34.1 37.5 24.1 56 7.0 WNW 13 22 7 12 1006.0 1005.9 0.0
16/12:30pm 33.7 37.5 24.0 57 6.8 W 11 26 6 14 1006.4 1006.3 0.0
16/12:00pm 34.3 38.7 24.5 56 6.9 W 9 17 5 9 1006.7 1006.6 0.0
16/11:30am 33.0 37.3 24.2 60 6.2 WNW 9 20 5 11 1007.2 1007.1 0.0
16/11:00am 33.0 37.9 24.7 61 5.8 WNW 7 13 4 7 1007.3 1007.2 0.0
16/10:30am 32.4 36.6 24.7 64 5.4 W 11 17 6 9 1007.6 1007.5 0.0
16/10:00am 31.6 35.9 24.2 65 5.2 W 9 20 5 11 1007.9 1007.8 0.0
16/09:30am 32.3 37.0 24.9 65 5.2 WSW 9 20 5 11 1007.8 1007.7 0.0
16/09:00am 30.9 35.3 25.0 71 4.2 WSW 11 20 6 11 1008.0 1007.9 0.0
16/08:30am 30.3 35.5 25.1 73 3.7 W 7 13 4 7 1007.8 1007.7 0.0
16/08:00am 29.5 34.6 25.0 77 3.2 WNW 7 13 4 7 1007.8 1007.7 0.0
16/07:30am 28.4 34.1 25.0 82 2.4 WNW 4 9 2 5 1007.9 1007.8 0.0
16/07:00am 26.6 32.8 25.2 92 1.0 WNW 2 4 1 2 1007.6 1007.5 0.0
16/06:30am 26.0 32.3 24.8 93 0.8 CALM 0 0 0 0 1007.1 1007.0 0.0
16/06:00am 26.6 32.2 24.8 90 1.3 W 4 4 2 2 1006.8 1006.7 0.0
16/05:30am 26.0 31.7 25.0 94 0.7 NNW 4 6 2 3 1006.1 1006.0 0.0
16/05:00am 25.6 31.2 24.9 96 0.5 WNW 4 4 2 2 1005.9 1005.8 0.0
16/04:30am 25.9 32.5 25.2 96 0.5 CALM 0 0 0 0 1006.0 1005.9 0.0
16/04:00am 26.1 32.4 25.4 96 0.5 WNW 2 4 1 2 1005.6 1005.5 0.0
16/03:30am 26.1 32.9 25.6 97 0.4 CALM 0 0 0 0 1005.5 1005.4 0.0
16/03:00am 25.9 32.6 25.4 97 0.4 CALM 0 0 0 0 1005.1 1005.0 0.0
16/02:30am 26.2 33.0 25.5 96 0.5 CALM 0 0 0 0 1005.1 1005.0 0.0
16/02:00am 26.4 33.3 25.7 96 0.5 CALM 0 4 0 2 1005.4 1005.3 0.0
16/01:30am 26.6 33.5 25.7 95 0.6 CALM 0 0 0 0 1005.8 1005.7 0.0
16/01:00am 27.0 34.2 26.1 95 0.6 CALM 0 0 0 0 1006.2 1006.1 0.0
16/12:30am 27.1 34.3 26.2 95 0.6 CALM 0 0 0 0 1006.4 1006.3 0.0
16/12:00am 27.4 34.5 26.0 92 1.0 CALM 0 2 0 1 1006.6 1006.5 0.0
 
Date/Time
CST
Temp
°C
App
Temp
°C
Dew
Point
°C
Rel
Hum
%
Delta-T
°C
Wind Press
QNH
hPa
Press
MSL
hPa
Rain since
9am
mm
Dir  Spd
km/h
Gust
km/h
Spd
kts
Gust
kts
15/11:30pm 27.5 34.7 26.1 92 1.0 CALM 0 0 0 0 1006.5 1006.4 0.0
15/11:00pm 27.6 34.6 25.8 90 1.3 CALM 0 4 0 2 1006.1 1006.0 0.0
15/10:30pm 27.3 33.9 25.3 89 1.4 CALM 0 0 0 0 1005.8 1005.7 0.0
15/10:00pm 27.4 34.0 25.2 88 1.5 CALM 0 0 0 0 1005.8 1005.7 0.0
15/09:30pm 27.9 34.4 25.1 85 2.0 CALM 0 0 0 0 1005.6 1005.5 0.0
15/09:00pm 28.1 34.4 24.7 82 2.4 CALM 0 0 0 0 1005.5 1005.4 0.0
15/08:30pm 28.4 34.4 24.8 81 2.5 NW 2 4 1 2 1005.0 1004.9 0.0
15/08:00pm 28.5 35.1 25.3 83 2.2 CALM 0 4 0 2 1005.0 1004.9 0.0
15/07:30pm 29.2 35.7 25.0 78 3.0 CALM 0 0 0 0 1004.5 1004.4 0.0
15/07:00pm 30.1 36.0 24.7 73 3.8 NW 2 4 1 2 1003.8 1003.7 0.0
15/06:30pm 30.6 35.6 24.5 70 4.3 NNW 6 7 3 4 1003.9 1003.8 0.0
15/06:00pm 31.2 36.4 25.1 70 4.3 NW 7 15 4 8 1003.6 1003.5 0.0
15/05:30pm 32.8 36.9 24.0 60 6.2 W 9 17 5 9 1003.4 1003.3 0.0
15/05:00pm 34.0 38.2 23.4 54 7.4 W 7 15 4 8 1003.5 1003.4 0.0
15/04:30pm 34.0 38.3 24.3 57 6.8 WSW 9 17 5 9 1003.5 1003.4 0.0
15/04:00pm 34.1 38.0 24.9 58 6.5 SW 13 19 7 10 1003.7 1003.6 0.0
15/03:30pm 34.4 37.6 23.7 53 7.5 WSW 13 22 7 12 1004.0 1003.9 0.0
15/03:00pm 34.1 37.8 23.2 53 7.6 WSW 9 17 5 9 1004.0 1003.9 0.0
15/02:30pm 33.7 37.1 23.4 55 7.2 W 11 19 6 10 1004.2 1004.1 0.0
15/02:00pm 35.5 38.7 24.4 52 7.8 W 15 22 8 12 1004.3 1004.2 0.0
15/01:30pm 35.5 38.6 24.8 54 7.6 WSW 17 28 9 15 1004.6 1004.5 0.0
15/01:00pm 34.6 38.8 24.8 56 6.9 WSW 11 22 6 12 1005.1 1005.0 0.0
15/12:30pm 33.9 37.2 24.5 58 6.6 WSW 15 22 8 12 1005.5 1005.4 0.0
15/12:00pm 34.2 37.8 25.0 58 6.5 WSW 15 22 8 12 1006.0 1005.9 0.0
15/11:30am 33.8 38.9 25.5 62 5.9 WSW 9 19 5 10 1006.3 1006.2 0.0
15/11:00am 33.3 37.9 25.3 63 5.7 WSW 11 26 6 14 1006.9 1006.8 0.0
15/10:30am 32.8 37.7 25.3 64 5.3 SW 9 17 5 9 1007.4 1007.3 0.0
15/10:00am 31.6 36.3 25.0 68 4.7 SW 9 13 5 7 1007.5 1007.4 0.0
15/09:30am 32.3 37.3 25.4 67 4.9 SW 9 17 5 9 1007.4 1007.3 0.0
15/09:00am 31.2 35.8 25.3 71 4.2 SW 11 19 6 10 1007.1 1007.0 0.0
15/08:30am 30.0 35.8 26.0 79 2.9 SW 7 9 4 5 1006.8 1006.7 0.0
15/08:00am 29.7 36.0 25.9 80 2.7 W 4 7 2 4 1006.6 1006.5 0.0
15/07:30am 28.8 35.9 26.0 85 2.0 CALM 0 2 0 1 1006.3 1006.2 0.0
15/07:00am 28.0 34.6 25.8 88 1.6 W 2 4 1 2 1005.8 1005.7 0.0
15/06:30am 27.5 34.3 25.5 89 1.4 CALM 0 0 0 0 1005.8 1005.7 0.0
15/06:00am 27.2 33.4 25.2 89 1.4 WNW 2 4 1 2 1005.4 1005.3 0.0
15/05:30am 27.8 33.9 25.0 85 2.0 W 2 4 1 2 1005.0 1004.9 0.0
15/05:00am 27.9 33.5 24.9 84 2.1 W 4 7 2 4 1004.8 1004.7 0.0
15/04:30am 27.8 33.4 24.8 84 2.1 WSW 4 7 2 4 1004.5 1004.4 0.0
15/04:00am 28.0 33.6 24.8 83 2.2 WNW 4 6 2 3 1004.4 1004.3 0.0
15/03:30am 28.3 33.6 24.9 82 2.4 W 6 13 3 7 1004.5 1004.4 0.0
15/03:00am 28.1 33.6 25.3 85 2.0 W 6 9 3 5 1004.5 1004.4 0.0
15/02:30am 27.5 33.4 25.3 88 1.5 WNW 4 4 2 2 1004.6 1004.5 0.0
15/02:00am 28.1 34.2 25.1 84 2.1 WNW 2 6 1 3 1004.7 1004.6 0.0
15/01:30am 28.4 33.8 25.2 83 2.3 W 6 9 3 5 1004.6 1004.5 0.0
15/01:00am 28.5 33.9 25.1 82 2.4 WNW 6 9 3 5 1004.8 1004.7 0.0
15/12:30am 28.6 34.0 25.2 82 2.4 W 6 13 3 7 1004.9 1004.8 0.0
15/12:00am 28.5 34.0 25.3 83 2.3 WNW 6 9 3 5 1005.2 1005.1 0.0
 
Date/Time
CST
Temp
°C
App
Temp
°C
Dew
Point
°C
Rel
Hum
%
Delta-T
°C
Wind Press
QNH
hPa
Press
MSL
hPa
Rain since
9am
mm
Dir  Spd
km/h
Gust
km/h
Spd
kts
Gust
kts
14/11:30pm 28.7 34.3 25.5 83 2.3 W 6 7 3 4 1005.5 1005.4 0.0
14/11:00pm 28.7 34.3 25.5 83 2.3 NW 6 11 3 6 1005.5 1005.4 0.0
14/10:30pm 28.7 34.3 25.5 83 2.3 NW 6 9 3 5 1005.5 1005.4 0.0
14/10:00pm 28.7 35.4 25.9 85 2.0 NW 2 4 1 2 1005.5 1005.4 0.0
14/09:30pm 28.9 35.6 25.9 84 2.1 NW 2 4 1 2 1005.7 1005.6 0.0
14/09:00pm 28.6 34.8 25.8 85 2.0 NW 4 6 2 3 1005.5 1005.4 0.0
14/08:30pm 28.9 35.2 24.7 78 2.9 CALM 0 2 0 1 1005.0 1004.9 0.0
14/08:00pm 29.0 33.9 23.7 73 3.7 W 4 6 2 3 1004.1 1004.0 0.0
14/07:30pm 30.3 35.2 23.0 65 5.0 W 2 4 1 2 1003.8 1003.7 0.0
14/07:00pm 30.9 35.3 22.8 62 5.5 WNW 4 6 2 3 1003.5 1003.4 0.0
14/06:30pm 31.6 35.5 22.6 59 6.2 WNW 6 9 3 5 1003.2 1003.1 0.0
14/06:00pm 31.9 35.8 22.6 58 6.4 W 6 11 3 6 1002.9 1002.8 0.0
14/05:30pm 32.0 35.0 22.7 58 6.4 W 11 20 6 11 1002.8 1002.7 0.0
14/05:00pm 32.1 35.3 23.1 59 6.2 W 11 19 6 10 1002.6 1002.5 0.0
14/04:30pm 32.3 36.5 24.1 62 5.7 W 9 19 5 10 1002.4 1002.3 0.0
14/04:00pm 32.5 36.7 24.8 64 5.4 W 11 22 6 12 1002.4 1002.3 0.0
14/03:30pm 33.2 37.3 25.2 63 5.7 W 13 24 7 13 1002.6 1002.5 0.0
14/03:00pm 33.5 37.2 25.2 62 5.9 WSW 15 24 8 13 1002.5 1002.4 0.0
14/02:30pm 33.6 37.7 24.5 59 6.4 W 11 24 6 13 1002.8 1002.7 0.0
14/02:00pm 33.6 36.9 24.5 59 6.4 WSW 15 26 8 14 1003.0 1002.9 0.0
14/01:30pm 33.9 37.0 24.2 57 6.8 W 15 24 8 13 1003.0 1002.9 0.0
14/01:00pm 34.7 37.9 24.3 54 7.3 WSW 15 22 8 12 1003.2 1003.1 0.0
14/12:30pm 33.9 37.4 24.2 57 6.8 W 13 24 7 13 1003.7 1003.6 0.0
14/12:00pm 33.6 37.1 24.8 60 6.2 W 15 26 8 14 1004.2 1004.1 0.0
14/11:30am 33.0 36.7 24.5 61 6.0 W 13 22 7 12 1004.7 1004.6 0.0
14/11:00am 32.0 35.6 24.3 63 5.4 WNW 13 22 7 12 1005.0 1004.9 0.0
14/10:30am 32.3 36.0 24.6 64 5.4 W 13 20 7 11 1005.3 1005.2 0.0
14/10:00am 31.8 35.2 24.7 66 5.0 WNW 15 26 8 14 1005.3 1005.2 0.0
14/09:30am 31.1 34.4 24.5 68 4.6 WNW 15 26 8 14 1005.7 1005.6 0.0
14/09:00am 31.1 35.3 24.7 68 4.5 WNW 11 22 6 12 1005.6 1005.5 0.0
14/08:30am 30.4 33.9 24.8 72 3.9 WNW 15 24 8 13 1005.9 1005.8 0.0
14/08:00am 29.8 34.1 24.9 75 3.4 WNW 11 22 6 12 1006.1 1006.0 0.0
14/07:30am 29.2 33.9 25.0 78 3.0 WNW 9 22 5 12 1006.1 1006.0 0.0
14/07:00am 28.8 33.9 25.0 80 2.7 NW 7 11 4 6 1006.1 1006.0 0.0
14/06:30am 28.5 34.0 25.3 83 2.3 NW 6 11 3 6 1005.7 1005.6 0.0
14/06:00am 28.4 34.2 25.2 83 2.3 W 4 7 2 4 1005.6 1005.5 0.0
14/05:30am 28.5 34.0 24.7 80 2.7 WNW 4 7 2 4 1005.0 1004.9 0.0
14/05:00am 28.8 33.8 24.8 79 2.8 WNW 7 17 4 9 1004.2 1004.1 0.0
14/04:30am 28.7 33.9 25.1 81 2.5 WNW 7 15 4 8 1004.1 1004.0 0.0
14/04:00am 28.9 34.1 25.1 80 2.7 WNW 7 15 4 8 1004.0 1003.9 0.0
14/03:30am 28.9 34.1 25.1 80 2.7 WNW 7 13 4 7 1004.1 1004.0 0.0
14/03:00am 28.9 33.7 25.1 80 2.7 WNW 9 15 5 8 1003.9 1003.8 0.0
14/02:30am 28.9 34.1 25.1 80 2.7 WNW 7 13 4 7 1003.6 1003.5 0.0
14/02:00am 28.9 34.9 25.5 82 2.4 WNW 4 9 2 5 1003.6 1003.5 0.0
14/01:30am 29.0 34.4 25.4 81 2.5 WNW 7 15 4 8 1003.7 1003.6 0.0
14/01:00am 29.0 34.5 25.6 82 2.4 NW 7 15 4 8 1004.3 1004.2 0.0
14/12:30am 28.9 34.5 25.7 83 2.3 NW 7 11 4 6 1004.9 1004.8 0.0
14/12:00am 28.7 34.5 25.7 84 2.1 NW 6 11 3 6 1005.2 1005.1 0.0
 
Date/Time
CST
Temp
°C
App
Temp
°C
Dew
Point
°C
Rel
Hum
%
Delta-T
°C
Wind Press
QNH
hPa
Press
MSL
hPa
Rain since
9am
mm
Dir  Spd
km/h
Gust
km/h
Spd
kts
Gust
kts
13/11:30pm 28.5 34.3 25.7 85 2.0 NW 6 9 3 5 1005.7 1005.6 0.0
13/11:00pm 27.6 33.8 25.8 90 1.3 NNW 4 6 2 3 1006.2 1006.1 0.0
13/10:30pm 27.5 34.5 25.9 91 1.1 CALM 0 0 0 0 1006.0 1005.9 0.0
13/10:00pm 27.4 33.7 25.4 89 1.4 WNW 2 4 1 2 1005.6 1005.5 0.0
13/09:30pm 27.9 34.4 25.7 88 1.6 NW 2 2 1 1 1005.7 1005.6 0.0
13/09:00pm 28.9 35.2 25.3 81 2.5 W 2 6 1 3 1005.7 1005.6 0.0

Other Formats:

Comma delimited format used in spreadsheet applications
http://www.bom.gov.au/fwo/IDD60801/IDD60801.94109.axf

JavaScript Object Notation format (JSON) in row-major order
http://www.bom.gov.au/fwo/IDD60801/IDD60801.94109.json